createdAt,value
2017-12-05T00:00:38.413Z,53.20
2017-12-05T00:03:06.136Z,53.20
2017-12-05T00:05:34.000Z,53.20
2017-12-05T00:08:02.843Z,53.20
2017-12-05T00:10:30.857Z,53.10
2017-12-05T00:12:58.885Z,53.10
2017-12-05T00:15:28.022Z,53.20
2017-12-05T00:17:55.990Z,53.20
2017-12-05T00:20:23.958Z,53.10
2017-12-05T00:22:51.928Z,53.00
2017-12-05T00:25:19.996Z,53.00
2017-12-05T00:27:48.067Z,53.00
2017-12-05T00:30:17.057Z,53.10
2017-12-05T00:32:44.665Z,53.00
2017-12-05T00:35:12.217Z,53.00
2017-12-05T00:37:40.673Z,53.00
2017-12-05T00:40:08.189Z,53.00
2017-12-05T00:42:35.694Z,53.00
2017-12-05T00:45:03.191Z,53.10
2017-12-05T00:47:31.482Z,53.00
2017-12-05T00:49:59.001Z,53.00
2017-12-05T00:52:26.521Z,52.90
2017-12-05T00:54:54.040Z,52.90
2017-12-05T00:57:22.305Z,52.80
2017-12-05T00:59:52.553Z,53.20
2017-12-05T01:02:20.053Z,53.20
2017-12-05T01:04:47.575Z,53.20
2017-12-05T01:07:15.101Z,53.00
2017-12-05T01:09:44.306Z,53.10
2017-12-05T01:12:12.612Z,53.00
2017-12-05T01:14:40.106Z,53.00
2017-12-05T01:17:09.577Z,53.70
2017-12-05T01:19:37.069Z,53.10
2017-12-05T01:22:05.525Z,53.10
2017-12-05T01:24:33.037Z,53.10
2017-12-05T01:27:02.237Z,53.10
2017-12-05T01:29:29.758Z,53.10
2017-12-05T01:31:57.253Z,53.10
2017-12-05T01:34:24.778Z,53.10
2017-12-05T01:36:52.273Z,53.10
2017-12-05T01:39:21.740Z,53.10
2017-12-05T01:41:49.234Z,53.10
2017-12-05T01:44:16.749Z,53.10
2017-12-05T01:46:44.245Z,53.10
2017-12-05T01:49:13.766Z,53.10
2017-12-05T01:51:41.257Z,53.10
2017-12-05T01:54:08.781Z,53.20
2017-12-05T01:56:36.268Z,53.10
2017-12-05T01:59:03.791Z,53.10
2017-12-05T02:01:31.313Z,53.10
2017-12-05T02:03:59.617Z,53.10
2017-12-05T02:06:27.113Z,53.00
2017-12-05T02:08:54.635Z,53.00
2017-12-05T02:11:22.148Z,53.00
2017-12-05T02:13:49.647Z,53.00
2017-12-05T02:16:17.169Z,53.00
2017-12-05T02:18:44.665Z,53.00
2017-12-05T02:21:12.166Z,53.00
2017-12-05T02:23:39.689Z,52.90
2017-12-05T02:26:07.189Z,53.00
2017-12-05T02:28:39.882Z,53.00
2017-12-05T02:31:08.150Z,52.90
2017-12-05T02:33:36.440Z,53.00
2017-12-05T02:36:04.713Z,52.80
2017-12-05T02:38:33.001Z,52.90
2017-12-05T02:41:10.457Z,52.90
2017-12-05T02:43:37.977Z,52.90
2017-12-05T02:46:05.525Z,53.60
2017-12-05T02:48:33.049Z,52.90
2017-12-05T02:51:01.313Z,52.90
2017-12-05T02:53:29.592Z,53.00
2017-12-05T02:55:57.863Z,52.80
2017-12-05T02:58:26.146Z,52.90
2017-12-05T03:00:54.414Z,52.90
2017-12-05T03:03:22.697Z,52.80
2017-12-05T03:05:50.981Z,52.80
2017-12-05T03:08:19.454Z,52.80
2017-12-05T03:10:47.738Z,52.80
2017-12-05T03:13:15.260Z,52.80
2017-12-05T03:15:43.545Z,52.80
2017-12-05T03:18:11.825Z,52.80
2017-12-05T03:20:40.083Z,52.80
2017-12-05T03:23:07.600Z,52.70
2017-12-05T03:25:35.098Z,52.70
2017-12-05T03:28:02.613Z,52.70
2017-12-05T03:30:30.110Z,52.80
2017-12-05T03:32:57.633Z,52.70
2017-12-05T03:35:25.156Z,52.70
2017-12-05T03:37:53.466Z,52.70
2017-12-05T03:40:20.956Z,52.70
2017-12-05T03:42:49.257Z,52.70
2017-12-05T03:45:17.513Z,52.70
2017-12-05T03:47:45.033Z,52.70
2017-12-05T03:50:12.533Z,52.70
2017-12-05T03:52:40.818Z,52.80
2017-12-05T03:55:10.061Z,52.80
2017-12-05T03:57:37.553Z,52.70
2017-12-05T04:00:05.078Z,52.70
2017-12-05T04:02:32.574Z,52.40
2017-12-05T04:05:00.864Z,53.30
2017-12-05T04:07:29.133Z,52.60
2017-12-05T04:09:57.394Z,52.60
2017-12-05T04:12:24.911Z,52.60
2017-12-05T04:14:53.365Z,52.60
2017-12-05T04:17:20.888Z,52.60
2017-12-05T04:19:48.391Z,52.60
2017-12-05T04:22:15.917Z,52.10
2017-12-05T04:24:44.182Z,52.70
2017-12-05T04:27:12.464Z,52.70
2017-12-05T04:29:41.668Z,52.70
2017-12-05T04:32:09.954Z,52.70
2017-12-05T04:34:37.449Z,52.70
2017-12-05T04:37:04.946Z,52.70
2017-12-05T04:39:33.225Z,52.90
2017-12-05T04:42:01.514Z,52.80
2017-12-05T04:44:29.775Z,52.80
2017-12-05T04:46:58.061Z,52.70
2017-12-05T04:49:26.324Z,52.80
2017-12-05T04:51:56.585Z,52.80
2017-12-05T04:54:24.110Z,52.80
2017-12-05T04:56:52.374Z,52.90
2017-12-05T04:59:20.678Z,52.80
2017-12-05T05:01:48.173Z,52.80
2017-12-05T05:04:15.693Z,52.80
2017-12-05T05:06:43.221Z,52.80
2017-12-05T05:09:11.497Z,52.90
2017-12-05T05:11:39.790Z,53.60
2017-12-05T05:14:08.054Z,52.90
2017-12-05T05:16:36.337Z,52.90
2017-12-05T05:19:04.602Z,52.80
2017-12-05T05:21:32.878Z,52.80
2017-12-05T05:24:01.145Z,52.90
2017-12-05T05:26:29.453Z,52.40
2017-12-05T05:28:56.958Z,52.90
2017-12-05T05:31:26.441Z,52.90
2017-12-05T05:33:53.937Z,52.90
2017-12-05T05:36:22.193Z,52.90
2017-12-05T05:38:49.710Z,52.80
2017-12-05T05:41:17.229Z,52.90
2017-12-05T05:43:45.489Z,53.00
2017-12-05T05:46:13.988Z,52.90
2017-12-05T05:48:42.257Z,52.80
2017-12-05T05:51:10.541Z,53.60
2017-12-05T05:53:38.829Z,52.80
2017-12-05T05:56:06.317Z,52.90
2017-12-05T05:58:33.841Z,52.80
2017-12-05T06:01:01.347Z,52.80
2017-12-05T06:03:28.873Z,52.90
2017-12-05T06:05:56.374Z,52.80
2017-12-05T06:08:23.902Z,52.80
2017-12-05T06:10:52.330Z,52.80
2017-12-05T06:13:20.585Z,52.80
2017-12-05T06:15:48.106Z,52.70
2017-12-05T06:18:15.601Z,52.80
2017-12-05T06:20:43.130Z,52.80
2017-12-05T06:23:10.650Z,52.80
2017-12-05T06:25:38.141Z,52.80
2017-12-05T06:28:05.662Z,52.70
2017-12-05T06:30:33.170Z,52.80
2017-12-05T06:33:00.694Z,52.80
2017-12-05T06:35:28.185Z,52.80
2017-12-05T06:37:56.019Z,52.80
2017-12-05T06:40:23.801Z,52.70
2017-12-05T06:42:52.528Z,52.70
2017-12-05T06:45:20.640Z,52.70
2017-12-05T06:47:48.710Z,52.60
2017-12-05T06:50:16.882Z,52.70
2017-12-05T06:52:45.055Z,52.60
2017-12-05T06:55:14.558Z,52.70
2017-12-05T06:57:42.561Z,52.60
2017-12-05T07:00:10.568Z,52.60
2017-12-05T07:02:38.665Z,52.60
2017-12-05T07:05:06.736Z,52.70
2017-12-05T07:07:34.908Z,52.70
2017-12-05T07:10:03.696Z,52.70
2017-12-05T07:12:31.868Z,52.60
2017-12-05T07:14:59.835Z,52.50
2017-12-05T07:17:27.905Z,52.90
2017-12-05T07:19:57.512Z,54.10
2017-12-05T07:22:25.587Z,53.50
2017-12-05T07:24:53.754Z,53.60
2017-12-05T07:27:22.986Z,53.40
2017-12-05T07:29:51.942Z,53.20
2017-12-05T07:32:19.970Z,53.20
2017-12-05T07:34:47.950Z,53.20
2017-12-05T07:37:16.050Z,54.00
2017-12-05T07:39:44.121Z,53.30
2017-12-05T07:42:12.091Z,53.70
2017-12-05T07:44:40.977Z,53.50
2017-12-05T07:47:08.771Z,53.50
2017-12-05T07:49:38.551Z,53.40
2017-12-05T07:52:06.574Z,53.30
2017-12-05T07:54:34.591Z,53.20
2017-12-05T07:57:02.557Z,53.20
2017-12-05T07:59:30.452Z,53.20
2017-12-05T08:01:59.208Z,53.20
2017-12-05T08:04:26.790Z,53.20
2017-12-05T08:06:54.735Z,53.20
2017-12-05T08:09:22.429Z,53.10
2017-12-05T08:11:50.363Z,53.20
2017-12-05T08:14:18.035Z,53.00
2017-12-05T08:16:45.619Z,53.00
2017-12-05T08:19:14.061Z,52.90
2017-12-05T08:21:42.029Z,52.90
2017-12-05T08:24:09.996Z,52.90
2017-12-05T08:26:37.574Z,52.90
2017-12-05T08:29:05.145Z,52.90
2017-12-05T08:31:32.681Z,52.90
2017-12-05T08:34:00.198Z,52.90
2017-12-05T08:36:27.738Z,52.90
2017-12-05T08:38:56.178Z,52.90
2017-12-05T08:41:23.719Z,52.90
2017-12-05T08:43:51.256Z,52.90
2017-12-05T08:46:18.777Z,52.90
2017-12-05T08:48:48.261Z,52.80
2017-12-05T08:51:16.766Z,52.90
2017-12-05T08:53:44.306Z,52.80
2017-12-05T08:56:11.825Z,52.80
2017-12-05T08:58:39.353Z,52.80
2017-12-05T09:01:07.646Z,53.30
2017-12-05T09:03:35.149Z,52.80
2017-12-05T09:06:02.678Z,52.80
2017-12-05T09:08:30.185Z,52.80
2017-12-05T09:10:57.713Z,52.80
2017-12-05T09:13:25.208Z,52.70
2017-12-05T09:15:53.472Z,52.70
2017-12-05T09:18:20.989Z,52.70
2017-12-05T09:20:48.519Z,52.70
2017-12-05T09:23:16.026Z,52.80
2017-12-05T09:25:43.550Z,52.70
2017-12-05T09:28:11.053Z,52.80
2017-12-05T09:30:39.521Z,52.80
2017-12-05T09:33:07.048Z,52.80
2017-12-05T09:35:34.548Z,52.80
2017-12-05T09:38:02.853Z,52.80
2017-12-05T09:40:31.113Z,52.80
2017-12-05T09:42:59.389Z,52.80
2017-12-05T09:45:26.909Z,52.80
2017-12-05T09:47:55.364Z,52.80
2017-12-05T09:50:22.889Z,52.80
2017-12-05T09:52:51.166Z,52.80
2017-12-05T09:55:19.435Z,52.80
2017-12-05T09:57:47.726Z,52.90
2017-12-05T10:00:15.229Z,52.70
2017-12-05T10:02:42.758Z,52.80
2017-12-05T10:05:10.283Z,52.80
2017-12-05T10:07:38.554Z,52.80
2017-12-05T10:10:06.850Z,52.80
2017-12-05T10:12:34.362Z,52.70
2017-12-05T10:15:01.865Z,52.80
2017-12-05T10:17:29.402Z,52.80
2017-12-05T10:19:57.678Z,52.80
2017-12-05T10:22:25.969Z,52.80
2017-12-05T10:24:53.477Z,52.70
2017-12-05T10:27:21.010Z,52.70
2017-12-05T10:29:48.514Z,52.70
2017-12-05T10:32:16.801Z,52.80
2017-12-05T10:34:45.069Z,52.80
2017-12-05T10:37:13.362Z,52.80
2017-12-05T10:39:41.630Z,52.70
2017-12-05T10:42:09.914Z,52.70
2017-12-05T10:44:38.176Z,52.70
2017-12-05T10:47:06.441Z,52.80
2017-12-05T10:49:34.737Z,52.70
2017-12-05T10:52:03.021Z,52.70
2017-12-05T10:54:30.537Z,52.70
2017-12-05T10:56:58.065Z,52.70
2017-12-05T10:59:25.568Z,52.70
2017-12-05T11:01:53.089Z,52.70
2017-12-05T11:04:20.629Z,52.70
2017-12-05T11:06:48.135Z,52.70
2017-12-05T11:09:16.452Z,52.80
2017-12-05T11:11:43.962Z,52.80
2017-12-05T11:14:11.485Z,52.80
2017-12-05T11:16:39.006Z,52.70
2017-12-05T11:19:07.270Z,52.70
2017-12-05T11:21:35.562Z,52.70
2017-12-05T11:24:03.068Z,52.70
2017-12-05T11:26:30.597Z,52.70
2017-12-05T11:28:58.097Z,52.70
2017-12-05T11:31:25.618Z,52.70
2017-12-05T11:33:53.112Z,52.70
2017-12-05T11:36:22.569Z,52.80
2017-12-05T11:38:50.075Z,52.60
2017-12-05T11:41:17.594Z,52.60
2017-12-05T11:43:45.097Z,53.30
2017-12-05T11:46:13.421Z,52.70
2017-12-05T11:48:40.922Z,52.70
2017-12-05T11:51:09.018Z,52.60
2017-12-05T11:53:36.541Z,52.60
2017-12-05T11:56:04.041Z,52.60
2017-12-05T11:58:31.569Z,52.60
2017-12-05T12:00:59.833Z,52.60
2017-12-05T12:03:27.362Z,52.60
2017-12-05T12:05:54.857Z,52.60
2017-12-05T12:08:24.325Z,52.60
2017-12-05T12:10:51.821Z,52.60
2017-12-05T12:13:22.067Z,52.60
2017-12-05T12:15:49.565Z,52.60
2017-12-05T12:18:17.098Z,52.50
2017-12-05T12:20:44.597Z,52.50
2017-12-05T12:23:12.098Z,52.50
2017-12-05T12:25:39.629Z,52.50
2017-12-05T12:28:08.852Z,52.50
2017-12-05T12:30:36.369Z,52.50
2017-12-05T12:33:03.862Z,52.40
2017-12-05T12:35:31.386Z,52.50
2017-12-05T12:37:58.882Z,52.50
2017-12-05T12:40:26.413Z,52.00
2017-12-05T12:42:54.677Z,52.50
2017-12-05T12:45:22.942Z,52.50
2017-12-05T12:47:50.967Z,52.50
2017-12-05T12:50:18.460Z,52.40
2017-12-05T12:52:45.985Z,52.50
2017-12-05T12:55:14.462Z,52.50
2017-12-05T12:57:41.981Z,52.40
2017-12-05T13:00:10.245Z,52.50
2017-12-05T13:02:38.538Z,52.50
2017-12-05T13:05:06.801Z,52.50
2017-12-05T13:07:35.097Z,52.50
2017-12-05T13:10:02.607Z,52.50
2017-12-05T13:12:30.105Z,52.50
2017-12-05T13:14:58.382Z,52.50
2017-12-05T13:17:25.882Z,52.50
2017-12-05T13:19:55.353Z,52.50
2017-12-05T13:22:22.853Z,52.50
2017-12-05T13:24:50.482Z,52.50
2017-12-05T13:27:18.940Z,52.50
2017-12-05T13:29:46.461Z,52.50
2017-12-05T13:32:13.963Z,52.50
2017-12-05T13:34:41.469Z,52.50
2017-12-05T13:37:08.990Z,52.50
2017-12-05T13:39:36.487Z,52.50
2017-12-05T13:42:04.009Z,52.50
2017-12-05T13:44:31.512Z,52.50
2017-12-05T13:46:59.033Z,52.50
2017-12-05T13:49:26.533Z,52.50
2017-12-05T13:51:54.834Z,52.50
2017-12-05T13:54:22.337Z,52.40
2017-12-05T13:56:49.838Z,52.50
2017-12-05T13:59:17.426Z,52.40
2017-12-05T14:01:44.898Z,52.50
2017-12-05T14:04:12.441Z,52.40
2017-12-05T14:06:40.910Z,52.50
2017-12-05T14:09:08.434Z,52.50
2017-12-05T14:11:36.697Z,52.50
2017-12-05T14:14:04.990Z,52.40
2017-12-05T14:16:33.258Z,52.40
2017-12-05T14:19:03.505Z,52.40
2017-12-05T14:21:31.485Z,52.40
2017-12-05T14:23:58.985Z,52.40
2017-12-05T14:26:26.514Z,52.40
2017-12-05T14:28:54.021Z,52.40
2017-12-05T14:31:22.318Z,52.50
2017-12-05T14:33:49.821Z,52.50
2017-12-05T14:36:17.344Z,52.50
2017-12-05T14:38:44.842Z,52.50
2017-12-05T14:41:12.364Z,52.50
2017-12-05T14:43:39.866Z,52.50
2017-12-05T14:46:08.138Z,52.00
2017-12-05T14:48:35.657Z,52.40
2017-12-05T14:51:03.155Z,52.50
2017-12-05T14:53:30.682Z,52.50
2017-12-05T14:55:59.140Z,52.40
2017-12-05T14:58:26.660Z,52.50
2017-12-05T15:00:54.926Z,52.50
2017-12-05T15:03:22.449Z,52.40
2017-12-05T15:05:49.945Z,52.60
2017-12-05T15:08:18.213Z,53.00
2017-12-05T15:10:45.733Z,52.40
2017-12-05T15:13:13.235Z,52.40
2017-12-05T15:15:41.617Z,52.40
2017-12-05T15:18:09.890Z,52.40
2017-12-05T15:20:38.179Z,52.40
2017-12-05T15:23:05.677Z,52.40
2017-12-05T15:25:33.201Z,52.40
2017-12-05T15:28:01.647Z,52.50
2017-12-05T15:30:29.176Z,52.50
2017-12-05T15:32:56.678Z,52.50
2017-12-05T15:35:24.942Z,52.50
2017-12-05T15:37:53.226Z,52.50
2017-12-05T15:40:21.485Z,52.50
2017-12-05T15:42:49.002Z,52.50
2017-12-05T15:45:16.502Z,52.50
2017-12-05T15:47:44.786Z,52.50
2017-12-05T15:50:13.050Z,52.50
2017-12-05T15:52:40.576Z,52.50
2017-12-05T15:55:08.073Z,52.50
2017-12-05T15:57:36.362Z,52.40
2017-12-05T16:00:04.688Z,52.40
2017-12-05T16:02:32.142Z,52.40
2017-12-05T16:04:59.665Z,52.40
2017-12-05T16:07:27.169Z,52.50
2017-12-05T16:09:54.685Z,52.40
2017-12-05T16:12:23.137Z,52.40
2017-12-05T16:14:51.433Z,52.40
2017-12-05T16:17:18.930Z,52.40
2017-12-05T16:19:46.448Z,52.40
2017-12-05T16:22:13.950Z,52.50
2017-12-05T16:24:41.471Z,52.40
2017-12-05T16:27:08.981Z,52.40
2017-12-05T16:29:36.501Z,52.40
2017-12-05T16:32:04.005Z,52.40
2017-12-05T16:34:32.274Z,52.40
2017-12-05T16:37:00.560Z,53.00
2017-12-05T16:39:28.825Z,53.20
2017-12-05T16:41:57.110Z,52.40
2017-12-05T16:44:25.385Z,52.40
2017-12-05T16:46:53.678Z,52.40
2017-12-05T16:49:21.177Z,52.40
2017-12-05T16:51:48.700Z,52.40
2017-12-05T16:54:16.206Z,52.40
2017-12-05T16:56:43.733Z,52.40
2017-12-05T16:59:11.241Z,52.40
2017-12-05T17:01:39.506Z,52.40
2017-12-05T17:04:07.045Z,52.40
2017-12-05T17:06:34.533Z,52.40
2017-12-05T17:09:03.857Z,52.40
2017-12-05T17:11:31.357Z,52.40
2017-12-05T17:13:58.894Z,52.40
2017-12-05T17:16:26.389Z,52.40
2017-12-05T17:18:54.674Z,52.40
2017-12-05T17:21:23.254Z,52.40
2017-12-05T17:23:50.786Z,53.00
2017-12-05T17:26:18.307Z,52.40
2017-12-05T17:28:45.806Z,52.40
2017-12-05T17:31:13.333Z,52.40
2017-12-05T17:33:40.830Z,52.40
2017-12-05T17:36:10.305Z,52.40
2017-12-05T17:38:38.352Z,52.40
2017-12-05T17:41:07.841Z,52.40
2017-12-05T17:43:35.337Z,52.40
2017-12-05T17:46:02.857Z,52.40
2017-12-05T17:48:30.358Z,52.40
2017-12-05T17:50:57.882Z,52.40
2017-12-05T17:53:25.383Z,52.40
2017-12-05T17:55:52.878Z,52.30
2017-12-05T17:58:20.397Z,52.40
2017-12-05T18:00:47.893Z,52.40
2017-12-05T18:03:15.415Z,52.30
2017-12-05T18:05:42.930Z,52.40
2017-12-05T18:08:10.445Z,52.40
2017-12-05T18:10:38.709Z,52.30
2017-12-05T18:13:08.170Z,52.30
2017-12-05T18:15:35.666Z,52.30
2017-12-05T18:18:03.186Z,52.30
2017-12-05T18:20:30.681Z,52.30
2017-12-05T18:22:58.180Z,52.30
2017-12-05T18:25:25.693Z,52.30
2017-12-05T18:27:53.194Z,52.30
2017-12-05T18:30:20.721Z,52.10
2017-12-05T18:32:49.021Z,52.20
2017-12-05T18:35:16.529Z,52.20
2017-12-05T18:37:44.794Z,52.30
2017-12-05T18:40:12.318Z,52.30
2017-12-05T18:42:39.817Z,52.20
2017-12-05T18:45:07.339Z,52.30
2017-12-05T18:47:34.842Z,52.30
2017-12-05T18:50:02.338Z,52.30
2017-12-05T18:52:29.862Z,52.30
2017-12-05T18:54:57.358Z,52.20
2017-12-05T18:57:24.885Z,52.30
2017-12-05T18:59:53.153Z,52.30
2017-12-05T19:02:21.458Z,52.40
2017-12-05T19:04:48.961Z,52.20
2017-12-05T19:07:16.587Z,52.20
2017-12-05T19:09:45.051Z,52.20
2017-12-05T19:12:12.597Z,52.20
2017-12-05T19:14:40.861Z,52.30
2017-12-05T19:17:09.145Z,52.20
2017-12-05T19:19:37.414Z,52.20
2017-12-05T19:22:05.669Z,52.10
2017-12-05T19:24:33.189Z,52.10
2017-12-05T19:27:00.681Z,52.10
2017-12-05T19:29:28.206Z,52.20
2017-12-05T19:31:55.706Z,52.90
2017-12-05T19:34:23.217Z,52.20
2017-12-05T19:36:50.712Z,52.30
2017-12-05T19:39:18.241Z,52.20
2017-12-05T19:41:45.745Z,52.20
2017-12-05T19:44:14.033Z,52.20
2017-12-05T19:46:41.533Z,52.10
2017-12-05T19:49:09.035Z,52.10
2017-12-05T19:51:36.573Z,52.20
2017-12-05T19:54:04.070Z,52.10
2017-12-05T19:56:31.592Z,52.10
2017-12-05T19:58:59.085Z,52.10
2017-12-05T20:01:26.601Z,52.20
2017-12-05T20:03:54.097Z,52.10
2017-12-05T20:06:21.614Z,52.10
2017-12-05T20:08:49.119Z,51.90
2017-12-05T20:11:16.641Z,52.00
2017-12-05T20:13:44.901Z,52.40
2017-12-05T20:16:14.384Z,52.20
2017-12-05T20:18:41.881Z,52.20
2017-12-05T20:21:10.161Z,52.20
2017-12-05T20:23:38.424Z,52.20
2017-12-05T20:26:06.706Z,52.30
2017-12-05T20:28:34.985Z,52.40
2017-12-05T20:31:03.254Z,52.40
2017-12-05T20:33:31.533Z,52.40
2017-12-05T20:35:59.789Z,52.40
2017-12-05T20:38:27.305Z,52.40
2017-12-05T20:40:54.826Z,52.40
2017-12-05T20:43:24.041Z,52.30
2017-12-05T20:45:51.575Z,52.30
2017-12-05T20:48:19.838Z,52.30
2017-12-05T20:50:47.353Z,52.30
2017-12-05T20:53:14.855Z,52.40
2017-12-05T20:55:43.141Z,52.30
2017-12-05T20:58:11.404Z,52.40
2017-12-05T21:00:39.702Z,53.20
2017-12-05T21:03:08.177Z,52.50
2017-12-05T21:05:36.461Z,52.70
2017-12-05T21:08:03.965Z,52.70
2017-12-05T21:10:31.469Z,52.50
2017-12-05T21:12:58.997Z,52.40
2017-12-05T21:15:26.489Z,52.40
2017-12-05T21:17:55.982Z,52.40
2017-12-05T21:20:24.241Z,52.50
2017-12-05T21:22:52.529Z,52.50
2017-12-05T21:25:20.794Z,52.50
2017-12-05T21:27:49.417Z,52.70
2017-12-05T21:30:16.934Z,52.60
2017-12-05T21:32:45.223Z,52.50
2017-12-05T21:35:12.717Z,52.50
2017-12-05T21:37:40.214Z,52.50
2017-12-05T21:40:07.733Z,52.60
2017-12-05T21:42:35.254Z,53.20
2017-12-05T21:45:02.833Z,53.10
2017-12-05T21:47:31.085Z,52.70
2017-12-05T21:49:59.349Z,52.60
2017-12-05T21:52:27.633Z,52.70
2017-12-05T21:54:55.898Z,52.90
2017-12-05T21:57:24.972Z,52.90
2017-12-05T21:59:53.611Z,52.90
2017-12-05T22:02:21.376Z,52.90
2017-12-05T22:04:52.311Z,52.80
2017-12-05T22:07:20.176Z,52.80
2017-12-05T22:09:48.041Z,52.80
2017-12-05T22:12:16.766Z,52.80
2017-12-05T22:14:46.639Z,52.90
2017-12-05T22:17:16.133Z,52.90
2017-12-05T22:19:43.630Z,52.80
2017-12-05T22:22:11.152Z,52.80
2017-12-05T22:24:38.649Z,52.70
2017-12-05T22:27:07.073Z,52.70
2017-12-05T22:29:34.611Z,52.80
2017-12-05T22:32:02.312Z,52.90
2017-12-05T22:34:29.857Z,52.90
2017-12-05T22:36:59.483Z,52.90
2017-12-05T22:39:27.008Z,53.00
2017-12-05T22:41:55.294Z,53.00
2017-12-05T22:44:23.108Z,52.90
2017-12-05T22:46:51.040Z,53.00
2017-12-05T22:49:19.377Z,53.10
2017-12-05T22:51:47.682Z,53.10
2017-12-05T22:54:15.217Z,53.10
2017-12-05T22:56:42.798Z,53.00
2017-12-05T22:59:10.315Z,53.00
2017-12-05T23:01:39.826Z,52.80
2017-12-05T23:04:08.081Z,52.90
2017-12-05T23:06:37.545Z,52.60
2017-12-05T23:09:05.308Z,52.70
2017-12-05T23:11:34.874Z,52.70
2017-12-05T23:14:03.603Z,52.90
2017-12-05T23:16:32.386Z,52.80
2017-12-05T23:19:00.065Z,52.90
2017-12-05T23:21:27.614Z,52.90
2017-12-05T23:23:55.674Z,52.90
2017-12-05T23:26:24.670Z,52.90
2017-12-05T23:28:52.641Z,52.90
2017-12-05T23:31:20.563Z,53.60
2017-12-05T23:33:49.900Z,52.90
2017-12-05T23:36:17.765Z,52.90
2017-12-05T23:38:46.368Z,52.80
2017-12-05T23:41:15.160Z,52.90
2017-12-05T23:43:42.693Z,52.80
2017-12-05T23:46:10.189Z,53.00
2017-12-05T23:48:37.752Z,53.00
2017-12-05T23:51:05.329Z,53.00
2017-12-05T23:53:33.605Z,52.80
2017-12-05T23:56:01.885Z,52.80
2017-12-05T23:58:30.149Z,52.90
